createdAt,value
2022-12-09T04:57:04.920Z,13.20
2022-12-09T04:59:32.443Z,11.90
2022-12-09T05:01:59.490Z,12.15
2022-12-09T05:04:26.450Z,12.93
2022-12-09T05:06:53.565Z,12.40
2022-12-09T05:09:20.452Z,13.30
2022-12-09T05:11:47.959Z,13.38
2022-12-09T05:14:15.336Z,12.93
2022-12-09T05:16:42.103Z,13.38
2022-12-09T05:19:09.256Z,13.32
2022-12-09T05:21:36.944Z,14.35
2022-12-09T05:24:03.974Z,12.05
2022-12-09T05:26:30.715Z,13.18
2022-12-09T05:28:57.423Z,13.48
2022-12-09T05:31:24.537Z,12.65
2022-12-09T05:33:52.442Z,12.55
2022-12-09T05:36:24.293Z,11.82
2022-12-09T05:38:52.031Z,12.68
2022-12-09T05:41:19.774Z,13.13
2022-12-09T05:43:47.276Z,13.30
2022-12-09T05:46:15.750Z,14.05
2022-12-09T05:48:42.781Z,13.20
2022-12-09T05:51:24.616Z,14.10
2022-12-09T05:53:51.734Z,15.23
2022-12-09T05:56:20.580Z,13.45
2022-12-09T05:58:47.732Z,13.57
2022-12-09T06:01:15.679Z,14.05
2022-12-09T06:03:42.868Z,13.73
2022-12-09T06:06:12.617Z,13.68
2022-12-09T06:08:41.307Z,14.43
2022-12-09T06:11:27.201Z,15.25
2022-12-09T06:13:54.816Z,14.60
2022-12-09T06:16:22.837Z,14.35
2022-12-09T06:18:50.743Z,15.00
2022-12-09T06:21:19.838Z,14.52
2022-12-09T06:23:47.625Z,14.40
2022-12-09T06:26:26.330Z,14.10
2022-12-09T06:28:54.340Z,13.17
2022-12-09T06:31:22.005Z,14.25
2022-12-09T06:33:57.923Z,14.30
2022-12-09T06:36:27.339Z,14.80
2022-12-09T06:38:56.623Z,14.23
2022-12-09T06:41:23.925Z,15.57
2022-12-09T06:43:50.818Z,15.70
2022-12-09T06:46:21.181Z,14.43
2022-12-09T06:48:48.285Z,15.48
2022-12-09T06:51:16.360Z,14.90
2022-12-09T06:53:43.692Z,14.80
2022-12-09T06:56:13.308Z,15.32
2022-12-09T06:58:42.109Z,14.65
2022-12-09T07:01:17.569Z,15.52
2022-12-09T07:03:48.422Z,14.68
2022-12-09T07:06:37.661Z,13.90
2022-12-09T07:09:10.598Z,13.80
2022-12-09T07:11:38.505Z,14.43
2022-12-09T07:14:06.050Z,13.98
2022-12-09T07:16:33.090Z,14.68
2022-12-09T07:19:00.570Z,14.40
2022-12-09T07:21:28.487Z,14.77
2022-12-09T07:23:55.516Z,15.15
2022-12-09T07:26:22.313Z,14.43
2022-12-09T07:28:50.533Z,14.18
2022-12-09T07:31:29.399Z,13.05
2022-12-09T07:33:58.820Z,13.43
2022-12-09T07:36:28.750Z,14.32
2022-12-09T07:39:01.584Z,16.85
2022-12-09T07:41:29.000Z,16.92
2022-12-09T07:43:56.531Z,15.40
2022-12-09T07:46:25.926Z,15.00
2022-12-09T07:48:53.624Z,14.45
2022-12-09T07:51:21.041Z,15.15
2022-12-09T07:53:48.756Z,14.95
2022-12-09T07:56:17.706Z,15.13
2022-12-09T07:58:47.783Z,14.75
2022-12-09T08:01:18.039Z,15.52
2022-12-09T08:06:14.515Z,16.05
2022-12-09T08:08:43.036Z,15.17
2022-12-09T08:11:25.449Z,15.30
2022-12-09T08:13:53.366Z,16.80
2022-12-09T08:16:21.917Z,15.43
2022-12-09T08:18:50.635Z,15.80
2022-12-09T08:21:23.536Z,14.60
2022-12-09T08:23:51.442Z,16.08
2022-12-09T08:26:21.418Z,14.77
2022-12-09T08:31:18.737Z,16.10
2022-12-09T08:33:46.551Z,15.30
2022-12-09T08:36:17.295Z,17.17
2022-12-09T08:38:44.364Z,16.48
2022-12-09T08:41:19.474Z,17.17
2022-12-09T08:43:46.931Z,16.02
2022-12-09T08:46:14.595Z,16.33
2022-12-09T08:48:42.600Z,17.00
2022-12-09T08:51:12.318Z,16.73
2022-12-09T08:53:39.877Z,18.10
2022-12-09T08:56:15.498Z,17.92
2022-12-09T08:58:43.204Z,17.17
2022-12-09T09:01:18.781Z,16.60
2022-12-09T09:03:47.036Z,15.73
2022-12-09T09:06:15.248Z,15.15
2022-12-09T09:08:42.685Z,14.98
2022-12-09T09:11:16.803Z,16.27
2022-12-09T09:13:45.950Z,14.73
2022-12-09T09:16:15.764Z,15.65
2022-12-09T09:18:43.744Z,16.27
2022-12-09T09:21:13.129Z,15.98
2022-12-09T09:23:40.764Z,16.13
2022-12-09T09:26:18.727Z,15.65
2022-12-09T09:28:47.273Z,15.73
2022-12-09T09:31:16.766Z,17.27
2022-12-09T09:33:43.989Z,18.00
2022-12-09T09:36:21.051Z,18.02
2022-12-09T09:38:49.449Z,16.83
2022-12-09T09:41:19.555Z,16.67
2022-12-09T09:43:46.633Z,15.38
2022-12-09T09:46:20.890Z,15.32
2022-12-09T09:48:49.726Z,14.43
2022-12-09T09:51:19.220Z,16.02
2022-12-09T09:53:50.501Z,17.98
2022-12-09T09:56:31.376Z,15.95
2022-12-09T09:59:20.590Z,17.35
2022-12-09T10:02:06.658Z,16.67
2022-12-09T10:04:59.194Z,16.42
2022-12-09T10:07:40.125Z,16.92
2022-12-09T10:10:29.497Z,17.35
2022-12-09T10:13:09.395Z,17.00
2022-12-09T10:15:54.920Z,14.48
2022-12-09T10:18:31.260Z,14.55
2022-12-09T10:20:58.851Z,13.30
2022-12-09T10:23:34.087Z,16.65
2022-12-09T10:26:06.135Z,13.98
2022-12-09T10:28:37.234Z,14.95
2022-12-09T10:31:04.280Z,13.82
2022-12-09T10:33:37.256Z,14.50
2022-12-09T10:36:05.731Z,14.95
2022-12-09T10:38:38.326Z,15.35
2022-12-09T10:41:16.609Z,17.50
2022-12-09T10:43:44.404Z,15.23
2022-12-09T10:46:18.401Z,16.33
2022-12-09T10:48:49.360Z,15.77
2022-12-09T10:51:24.025Z,16.25
2022-12-09T10:53:50.985Z,14.40
2022-12-09T10:56:32.491Z,15.30
2022-12-09T10:59:09.731Z,13.50
2022-12-09T11:01:51.773Z,14.00
2022-12-09T11:04:26.604Z,14.82
2022-12-09T11:06:59.797Z,14.35
2022-12-09T11:09:33.661Z,15.00
2022-12-09T11:12:02.424Z,14.57
2022-12-09T11:14:39.142Z,12.53
2022-12-09T11:17:21.782Z,13.27
2022-12-09T11:19:54.280Z,12.65
2022-12-09T11:22:40.254Z,13.93
2022-12-09T11:25:24.288Z,13.23
2022-12-09T11:27:56.198Z,13.73
2022-12-09T11:30:27.029Z,12.52
2022-12-09T11:33:01.109Z,13.07
2022-12-09T11:35:31.290Z,12.18
2022-12-09T11:40:29.414Z,10.43
2022-12-09T11:42:57.023Z,11.68
2022-12-09T11:45:33.686Z,13.02
2022-12-09T11:48:32.544Z,12.65
2022-12-09T11:50:55.677Z,11.93
2022-12-09T11:53:31.958Z,14.02
2022-12-09T11:56:18.333Z,12.70
2022-12-09T11:58:57.722Z,12.95
2022-12-09T12:01:46.336Z,12.55
2022-12-09T12:04:17.556Z,11.85
2022-12-09T12:07:01.561Z,11.02
2022-12-09T12:09:37.663Z,11.88
2022-12-09T12:12:24.573Z,11.15
2022-12-09T12:14:51.265Z,11.57
2022-12-09T12:17:36.313Z,11.60
2022-12-09T12:20:05.094Z,12.27
2022-12-09T12:22:56.488Z,12.38
2022-12-09T12:25:37.072Z,13.65
2022-12-09T12:28:12.565Z,12.13
2022-12-09T12:31:02.432Z,13.00
2022-12-09T12:34:07.683Z,13.07
2022-12-09T12:36:49.207Z,12.40
2022-12-09T12:39:24.898Z,11.55
2022-12-09T12:41:57.813Z,14.05
2022-12-09T12:44:57.626Z,12.32
2022-12-09T12:47:55.960Z,10.93
2022-12-09T12:50:44.623Z,11.70
2022-12-09T12:53:30.706Z,11.68
2022-12-09T12:56:07.178Z,10.75
2022-12-09T12:58:45.714Z,14.23
2022-12-09T13:01:30.582Z,18.42
2022-12-09T13:04:20.552Z,13.13
2022-12-09T13:06:51.161Z,12.10
2022-12-09T13:09:26.730Z,13.85
2022-12-09T13:12:05.712Z,14.10
2022-12-09T13:14:53.517Z,12.85
2022-12-09T13:17:26.945Z,13.57
2022-12-09T13:19:58.341Z,15.40
2022-12-09T13:22:33.938Z,14.30
2022-12-09T13:25:15.043Z,12.88
2022-12-09T13:27:52.454Z,12.90
2022-12-09T13:30:27.001Z,11.88
2022-12-09T13:33:22.168Z,12.43
2022-12-09T13:36:24.152Z,11.45
2022-12-09T13:38:50.846Z,11.60
2022-12-09T13:41:26.426Z,12.88
2022-12-09T13:44:05.198Z,13.15
2022-12-09T13:46:33.363Z,14.10
2022-12-09T13:49:10.202Z,14.25
2022-12-09T13:51:51.410Z,13.77
2022-12-09T13:54:21.842Z,13.60
2022-12-09T13:57:30.272Z,12.90
2022-12-09T14:00:03.077Z,13.20
2022-12-09T14:02:42.611Z,11.93
2022-12-09T14:05:18.457Z,13.23
2022-12-09T14:08:01.582Z,14.10
2022-12-09T14:10:40.974Z,13.55
2022-12-09T14:13:32.125Z,15.00
2022-12-09T14:16:26.163Z,15.20
2022-12-09T14:18:52.950Z,17.13
2022-12-09T14:21:19.565Z,16.00
2022-12-09T14:24:08.191Z,16.30
2022-12-09T14:26:39.148Z,16.85
2022-12-09T14:29:05.862Z,16.25
2022-12-09T14:31:55.496Z,16.58
2022-12-09T14:34:39.059Z,15.63
2022-12-09T14:37:17.171Z,15.80
2022-12-09T14:39:49.523Z,15.73
2022-12-09T14:42:43.330Z,17.38
2022-12-09T14:45:28.117Z,15.77
2022-12-09T14:47:56.118Z,14.32
2022-12-09T14:50:25.043Z,15.48
2022-12-09T14:52:58.248Z,16.35
2022-12-09T14:55:26.582Z,16.60
2022-12-09T14:57:55.379Z,16.75
2022-12-09T15:00:33.450Z,17.55
2022-12-09T15:06:00.603Z,15.85
2022-12-09T15:08:32.005Z,18.90
2022-12-09T15:11:01.231Z,19.02
2022-12-09T15:13:28.425Z,19.13
2022-12-09T15:15:55.386Z,19.27
2022-12-09T15:18:25.064Z,20.75
2022-12-09T15:20:57.532Z,21.73
2022-12-09T15:23:40.591Z,22.48
2022-12-09T15:26:17.708Z,22.55
2022-12-09T15:28:48.994Z,20.60
2022-12-09T15:31:21.856Z,21.45
2022-12-09T15:33:53.880Z,19.02
2022-12-09T15:36:23.253Z,19.50
2022-12-09T15:39:15.211Z,20.52
2022-12-09T15:42:07.594Z,21.10
2022-12-09T15:44:53.335Z,19.60
2022-12-09T15:47:24.515Z,20.25
2022-12-09T15:50:03.347Z,20.48
2022-12-09T15:52:38.117Z,18.00
2022-12-09T15:55:11.274Z,19.20
2022-12-09T15:57:39.304Z,21.40
2022-12-09T16:00:07.890Z,19.95
2022-12-09T16:02:37.848Z,21.27
2022-12-09T16:05:07.260Z,18.98
2022-12-09T16:07:34.376Z,17.48
2022-12-09T16:10:15.291Z,17.02
2022-12-09T16:12:43.520Z,17.80
2022-12-09T16:15:13.493Z,19.42
2022-12-09T16:17:55.297Z,18.10
2022-12-09T16:20:32.936Z,18.60
2022-12-09T16:23:01.304Z,20.35
2022-12-09T16:25:34.641Z,18.58
2022-12-09T16:28:04.147Z,21.52
2022-12-09T16:30:43.035Z,20.35
2022-12-09T16:33:19.951Z,20.80
2022-12-09T16:36:02.125Z,21.17
2022-12-09T16:38:30.376Z,20.05
2022-12-09T16:41:00.140Z,21.85
2022-12-09T16:43:28.693Z,17.60
2022-12-09T16:46:01.471Z,19.13
2022-12-09T16:48:29.867Z,19.83
2022-12-09T16:51:17.226Z,19.70
2022-12-09T16:53:49.939Z,19.05
2022-12-09T16:56:25.371Z,18.00
2022-12-09T16:58:53.156Z,18.50
2022-12-09T17:01:22.480Z,18.77
2022-12-09T17:03:57.920Z,18.35
2022-12-09T17:06:24.795Z,18.55
2022-12-09T17:08:51.453Z,19.92
2022-12-09T17:11:18.814Z,19.60
2022-12-09T17:13:45.434Z,18.58
2022-12-09T17:16:12.218Z,19.63
2022-12-09T17:18:39.754Z,19.65
2022-12-09T17:21:13.991Z,19.00
2022-12-09T17:23:41.313Z,20.33
2022-12-09T17:26:11.150Z,19.85
2022-12-09T17:28:38.706Z,20.65
2022-12-09T17:31:11.922Z,22.08
2022-12-09T17:33:38.804Z,21.42
2022-12-09T17:36:07.325Z,22.35
2022-12-09T17:38:34.455Z,23.00
2022-12-09T17:41:05.964Z,22.80
2022-12-09T17:43:33.394Z,24.40
2022-12-09T17:46:04.911Z,23.10
2022-12-09T17:48:33.063Z,21.38
2022-12-09T17:51:04.537Z,21.98
2022-12-09T17:53:31.173Z,21.55
2022-12-09T17:55:57.791Z,21.75
2022-12-09T17:58:24.454Z,22.25
2022-12-09T18:00:51.152Z,23.08
2022-12-09T18:03:27.511Z,23.20
2022-12-09T18:06:04.475Z,23.50
2022-12-09T18:08:31.191Z,22.60
2022-12-09T18:11:03.384Z,23.05
2022-12-09T18:13:30.410Z,21.38
2022-12-09T18:15:57.279Z,22.67
2022-12-09T18:18:23.969Z,21.35
2022-12-09T18:20:50.640Z,22.10
2022-12-09T18:23:17.271Z,22.85
2022-12-09T18:25:43.898Z,21.90
2022-12-09T18:28:10.553Z,22.58
2022-12-09T18:30:38.745Z,23.75
2022-12-09T18:33:05.709Z,23.70
2022-12-09T18:35:32.545Z,23.23
2022-12-09T18:38:06.058Z,22.10
2022-12-09T18:41:01.093Z,22.63
2022-12-09T18:46:07.554Z,22.13
2022-12-09T18:48:34.711Z,23.63
2022-12-09T18:51:01.416Z,23.35
2022-12-09T18:53:28.098Z,23.33
2022-12-09T18:55:54.768Z,24.25
2022-12-09T18:58:42.508Z,21.40
2022-12-09T19:01:20.879Z,23.20
2022-12-09T19:03:48.228Z,21.50
2022-12-09T19:06:20.916Z,20.67
2022-12-09T19:08:48.518Z,20.52
2022-12-09T19:11:15.529Z,23.05
2022-12-09T19:13:42.163Z,23.23
2022-12-09T19:16:08.912Z,20.40
2022-12-09T19:18:36.179Z,21.70
2022-12-09T19:21:15.594Z,21.45
2022-12-09T19:23:44.258Z,22.08
2022-12-09T19:26:15.992Z,21.73
2022-12-09T19:28:48.140Z,22.90
2022-12-09T19:31:21.996Z,22.10
2022-12-09T19:33:48.984Z,22.77
2022-12-09T19:36:15.834Z,21.65
2022-12-09T19:38:42.706Z,24.17
2022-12-09T19:41:09.521Z,23.13
2022-12-09T19:43:36.539Z,23.33
2022-12-09T19:46:08.563Z,21.70
2022-12-09T19:48:37.292Z,24.45
2022-12-09T19:51:11.467Z,23.42
2022-12-09T19:53:39.123Z,23.00
2022-12-09T19:56:08.889Z,20.88
2022-12-09T19:58:37.405Z,22.42
2022-12-09T20:01:19.818Z,22.92
2022-12-09T20:03:49.433Z,22.95
2022-12-09T20:06:19.123Z,22.65
2022-12-09T20:08:46.827Z,22.75
2022-12-09T20:11:15.748Z,24.23
2022-12-09T20:13:42.760Z,23.10
2022-12-09T20:16:12.133Z,23.10
2022-12-09T20:18:38.998Z,21.92
2022-12-09T20:21:08.214Z,21.33
2022-12-09T20:23:36.440Z,22.33
2022-12-09T20:26:15.108Z,21.10
2022-12-09T20:28:43.782Z,21.58
2022-12-09T20:31:13.587Z,22.70
2022-12-09T20:33:40.677Z,23.20
2022-12-09T20:36:09.742Z,23.50
2022-12-09T20:38:36.788Z,24.05
2022-12-09T20:41:09.774Z,22.90
2022-12-09T20:43:40.497Z,21.92
2022-12-09T20:46:09.505Z,22.05
2022-12-09T20:48:37.640Z,23.65
2022-12-09T20:51:10.340Z,21.73
2022-12-09T20:53:37.064Z,22.95
2022-12-09T20:56:04.569Z,23.17
2022-12-09T20:58:31.294Z,22.67
2022-12-09T21:01:08.023Z,22.95
2022-12-09T21:03:35.124Z,22.77
2022-12-09T21:06:01.972Z,22.25
2022-12-09T21:08:31.723Z,22.08
2022-12-09T21:13:40.813Z,22.30
2022-12-09T21:16:22.160Z,21.98
2022-12-09T21:18:50.303Z,22.73
2022-12-09T21:21:18.587Z,22.13
2022-12-09T21:23:45.655Z,23.05
2022-12-09T21:26:15.941Z,24.02
2022-12-09T21:28:44.278Z,25.00
2022-12-09T21:31:13.633Z,23.83
2022-12-09T21:33:41.668Z,23.17
2022-12-09T21:36:11.622Z,24.30
2022-12-09T21:38:38.816Z,24.90
2022-12-09T21:41:09.276Z,23.98
2022-12-09T21:43:36.802Z,22.98
2022-12-09T21:46:11.744Z,24.35
2022-12-09T21:48:39.212Z,24.48
2022-12-09T21:51:06.290Z,25.20
2022-12-09T21:53:33.172Z,24.73
2022-12-09T21:56:05.277Z,24.80
2022-12-09T21:58:33.286Z,24.80
2022-12-09T22:01:02.800Z,24.67
2022-12-09T22:03:29.528Z,25.90
2022-12-09T22:05:59.602Z,24.02
2022-12-09T22:08:26.523Z,24.05
2022-12-09T22:10:53.700Z,22.38
2022-12-09T22:13:20.440Z,24.33
2022-12-09T22:15:47.072Z,24.08
2022-12-09T22:18:13.723Z,22.27
2022-12-09T22:23:27.268Z,21.98
2022-12-09T22:25:53.909Z,22.67
2022-12-09T22:28:20.601Z,23.25
2022-12-09T22:30:47.280Z,24.90
2022-12-09T22:33:13.968Z,22.48
2022-12-09T22:35:40.656Z,22.73
2022-12-09T22:38:14.171Z,22.30
2022-12-09T22:40:41.563Z,23.88
2022-12-09T22:43:08.309Z,24.70
2022-12-09T22:45:35.886Z,23.17
2022-12-09T22:48:03.417Z,26.33
2022-12-09T22:50:30.056Z,22.30
2022-12-09T22:52:56.709Z,22.30
2022-12-09T22:55:23.345Z,24.50
2022-12-09T22:57:51.756Z,22.48
2022-12-09T23:00:18.691Z,22.80
2022-12-09T23:02:45.500Z,24.25
2022-12-09T23:05:12.246Z,24.75
2022-12-09T23:07:38.970Z,23.15
2022-12-09T23:10:06.334Z,22.75
2022-12-09T23:12:33.279Z,24.38
2022-12-09T23:14:59.875Z,24.20
2022-12-09T23:17:26.573Z,23.27
2022-12-09T23:19:53.344Z,22.63
2022-12-09T23:22:19.962Z,23.70
2022-12-09T23:24:47.839Z,24.45
2022-12-09T23:27:14.468Z,23.17
2022-12-09T23:29:41.087Z,24.17
2022-12-09T23:32:07.724Z,25.33
2022-12-09T23:34:34.365Z,24.23
2022-12-09T23:37:00.956Z,25.08
2022-12-09T23:39:27.606Z,23.88
2022-12-09T23:41:54.699Z,23.90
2022-12-09T23:44:21.338Z,26.00
2022-12-09T23:46:48.180Z,26.42
2022-12-09T23:49:15.692Z,24.95
2022-12-09T23:51:46.321Z,24.50
2022-12-09T23:54:14.607Z,25.67
2022-12-09T23:56:49.720Z,26.08
2022-12-09T23:59:20.969Z,25.05
